sensor_id;sensor_type;location;lat;lon;timestamp;P1;durP1;ratioP1;P2;durP2;ratioP2
38132;SDS011;23948;43.252;26.572;2023-02-28T00:02:11;9.57;;;6.72;;
38132;SDS011;23948;43.252;26.572;2023-02-28T00:04:36;10.23;;;6.22;;
38132;SDS011;23948;43.252;26.572;2023-02-28T00:07:02;9.43;;;6.53;;
38132;SDS011;23948;43.252;26.572;2023-02-28T00:09:27;9.90;;;6.07;;
38132;SDS011;23948;43.252;26.572;2023-02-28T00:11:52;8.07;;;5.30;;
38132;SDS011;23948;43.252;26.572;2023-02-28T00:14:18;8.52;;;5.20;;
38132;SDS011;23948;43.252;26.572;2023-02-28T00:16:43;8.38;;;5.38;;
38132;SDS011;23948;43.252;26.572;2023-02-28T00:19:08;8.10;;;5.43;;
38132;SDS011;23948;43.252;26.572;2023-02-28T00:21:34;7.93;;;5.32;;
38132;SDS011;23948;43.252;26.572;2023-02-28T00:24:00;9.27;;;5.55;;
38132;SDS011;23948;43.252;26.572;2023-02-28T00:26:25;8.32;;;5.60;;
38132;SDS011;23948;43.252;26.572;2023-02-28T00:28:51;7.93;;;5.43;;
38132;SDS011;23948;43.252;26.572;2023-02-28T00:31:17;9.82;;;6.05;;
38132;SDS011;23948;43.252;26.572;2023-02-28T00:33:42;9.60;;;6.13;;
38132;SDS011;23948;43.252;26.572;2023-02-28T00:36:09;8.75;;;6.00;;
38132;SDS011;23948;43.252;26.572;2023-02-28T00:38:34;9.20;;;5.57;;
38132;SDS011;23948;43.252;26.572;2023-02-28T00:41:00;9.35;;;5.57;;
38132;SDS011;23948;43.252;26.572;2023-02-28T00:43:29;9.48;;;5.93;;
38132;SDS011;23948;43.252;26.572;2023-02-28T00:45:54;9.32;;;6.40;;
38132;SDS011;23948;43.252;26.572;2023-02-28T00:48:20;10.50;;;5.75;;
38132;SDS011;23948;43.252;26.572;2023-02-28T00:50:48;9.93;;;6.25;;
38132;SDS011;23948;43.252;26.572;2023-02-28T00:53:13;9.32;;;6.47;;
38132;SDS011;23948;43.252;26.572;2023-02-28T00:55:38;9.65;;;6.45;;
38132;SDS011;23948;43.252;26.572;2023-02-28T00:58:03;9.90;;;6.93;;
38132;SDS011;23948;43.252;26.572;2023-02-28T01:00:29;10.80;;;7.05;;
38132;SDS011;23948;43.252;26.572;2023-02-28T01:02:54;11.73;;;7.07;;
38132;SDS011;23948;43.252;26.572;2023-02-28T01:05:19;10.88;;;6.97;;
38132;SDS011;23948;43.252;26.572;2023-02-28T01:07:45;10.75;;;7.10;;
38132;SDS011;23948;43.252;26.572;2023-02-28T01:10:10;9.13;;;6.60;;
38132;SDS011;23948;43.252;26.572;2023-02-28T01:12:35;9.55;;;6.43;;
38132;SDS011;23948;43.252;26.572;2023-02-28T01:15:01;9.15;;;6.28;;
38132;SDS011;23948;43.252;26.572;2023-02-28T01:17:26;9.80;;;6.00;;
38132;SDS011;23948;43.252;26.572;2023-02-28T01:19:52;9.02;;;5.88;;
38132;SDS011;23948;43.252;26.572;2023-02-28T01:22:18;10.43;;;6.20;;
38132;SDS011;23948;43.252;26.572;2023-02-28T01:24:44;11.10;;;6.82;;
38132;SDS011;23948;43.252;26.572;2023-02-28T01:27:09;9.65;;;6.93;;
38132;SDS011;23948;43.252;26.572;2023-02-28T01:29:34;8.57;;;6.50;;
38132;SDS011;23948;43.252;26.572;2023-02-28T01:32:00;10.50;;;7.03;;
38132;SDS011;23948;43.252;26.572;2023-02-28T01:34:25;10.32;;;6.90;;
38132;SDS011;23948;43.252;26.572;2023-02-28T01:36:50;11.80;;;7.88;;
38132;SDS011;23948;43.252;26.572;2023-02-28T01:39:16;10.75;;;8.13;;
38132;SDS011;23948;43.252;26.572;2023-02-28T01:41:41;9.57;;;6.60;;
38132;SDS011;23948;43.252;26.572;2023-02-28T01:46:52;12.13;;;5.85;;
38132;SDS011;23948;43.252;26.572;2023-02-28T01:49:17;6.72;;;4.82;;
38132;SDS011;23948;43.252;26.572;2023-02-28T01:51:49;7.63;;;4.63;;
38132;SDS011;23948;43.252;26.572;2023-02-28T01:54:23;6.82;;;4.60;;
38132;SDS011;23948;43.252;26.572;2023-02-28T01:56:51;8.07;;;4.45;;
38132;SDS011;23948;43.252;26.572;2023-02-28T01:59:21;7.22;;;4.63;;
38132;SDS011;23948;43.252;26.572;2023-02-28T02:01:47;7.97;;;4.63;;
38132;SDS011;23948;43.252;26.572;2023-02-28T02:04:12;7.68;;;4.50;;
38132;SDS011;23948;43.252;26.572;2023-02-28T02:06:38;8.23;;;4.75;;
38132;SDS011;23948;43.252;26.572;2023-02-28T02:09:05;8.88;;;4.80;;
38132;SDS011;23948;43.252;26.572;2023-02-28T02:11:31;7.85;;;4.90;;
38132;SDS011;23948;43.252;26.572;2023-02-28T02:19:09;6.72;;;4.68;;
38132;SDS011;23948;43.252;26.572;2023-02-28T02:26:52;8.32;;;5.28;;
38132;SDS011;23948;43.252;26.572;2023-02-28T02:29:23;8.35;;;5.65;;
38132;SDS011;23948;43.252;26.572;2023-02-28T02:32:20;7.63;;;5.78;;
38132;SDS011;23948;43.252;26.572;2023-02-28T02:37:42;16.73;;;11.05;;
38132;SDS011;23948;43.252;26.572;2023-02-28T02:40:15;12.57;;;8.50;;
38132;SDS011;23948;43.252;26.572;2023-02-28T02:42:44;10.55;;;7.57;;
38132;SDS011;23948;43.252;26.572;2023-02-28T02:47:39;9.02;;;6.68;;
38132;SDS011;23948;43.252;26.572;2023-02-28T02:50:06;9.45;;;7.10;;
38132;SDS011;23948;43.252;26.572;2023-02-28T02:52:34;12.05;;;7.82;;
38132;SDS011;23948;43.252;26.572;2023-02-28T02:55:02;10.90;;;7.30;;
38132;SDS011;23948;43.252;26.572;2023-02-28T02:57:35;9.98;;;7.38;;
38132;SDS011;23948;43.252;26.572;2023-02-28T03:00:02;10.27;;;6.65;;
38132;SDS011;23948;43.252;26.572;2023-02-28T03:02:29;10.05;;;6.85;;
38132;SDS011;23948;43.252;26.572;2023-02-28T03:04:59;11.30;;;7.28;;
38132;SDS011;23948;43.252;26.572;2023-02-28T03:07:25;12.93;;;8.20;;
38132;SDS011;23948;43.252;26.572;2023-02-28T03:09:51;8.93;;;6.85;;
38132;SDS011;23948;43.252;26.572;2023-02-28T03:12:17;10.82;;;7.55;;
38132;SDS011;23948;43.252;26.572;2023-02-28T03:17:15;11.45;;;7.10;;
38132;SDS011;23948;43.252;26.572;2023-02-28T03:19:54;16.38;;;11.23;;
38132;SDS011;23948;43.252;26.572;2023-02-28T03:27:41;9.70;;;6.63;;
38132;SDS011;23948;43.252;26.572;2023-02-28T03:30:10;7.75;;;5.78;;
38132;SDS011;23948;43.252;26.572;2023-02-28T03:32:41;11.55;;;6.78;;
38132;SDS011;23948;43.252;26.572;2023-02-28T03:35:09;9.65;;;7.03;;
38132;SDS011;23948;43.252;26.572;2023-02-28T03:37:37;9.13;;;6.90;;
38132;SDS011;23948;43.252;26.572;2023-02-28T03:40:10;9.73;;;6.95;;
38132;SDS011;23948;43.252;26.572;2023-02-28T03:42:37;9.25;;;7.30;;
38132;SDS011;23948;43.252;26.572;2023-02-28T03:45:05;9.00;;;6.45;;
38132;SDS011;23948;43.252;26.572;2023-02-28T03:47:38;9.60;;;6.70;;
38132;SDS011;23948;43.252;26.572;2023-02-28T03:52:31;9.52;;;6.82;;
38132;SDS011;23948;43.252;26.572;2023-02-28T03:54:59;9.50;;;6.55;;
38132;SDS011;23948;43.252;26.572;2023-02-28T03:59:56;10.15;;;7.60;;
38132;SDS011;23948;43.252;26.572;2023-02-28T04:02:24;11.13;;;6.85;;
38132;SDS011;23948;43.252;26.572;2023-02-28T04:04:49;11.60;;;6.60;;
38132;SDS011;23948;43.252;26.572;2023-02-28T04:07:16;10.32;;;7.13;;
38132;SDS011;23948;43.252;26.572;2023-02-28T04:09:41;9.00;;;6.43;;
38132;SDS011;23948;43.252;26.572;2023-02-28T04:12:07;7.93;;;6.22;;
38132;SDS011;23948;43.252;26.572;2023-02-28T04:14:32;8.93;;;6.70;;
38132;SDS011;23948;43.252;26.572;2023-02-28T04:16:58;8.38;;;6.72;;
38132;SDS011;23948;43.252;26.572;2023-02-28T04:19:23;7.60;;;6.10;;
38132;SDS011;23948;43.252;26.572;2023-02-28T04:21:52;8.60;;;6.80;;
38132;SDS011;23948;43.252;26.572;2023-02-28T04:24:18;8.48;;;6.80;;
38132;SDS011;23948;43.252;26.572;2023-02-28T04:26:48;7.85;;;6.43;;
38132;SDS011;23948;43.252;26.572;2023-02-28T04:29:18;7.90;;;6.13;;
38132;SDS011;23948;43.252;26.572;2023-02-28T04:31:44;9.90;;;6.72;;
38132;SDS011;23948;43.252;26.572;2023-02-28T04:34:09;8.90;;;6.85;;
38132;SDS011;23948;43.252;26.572;2023-02-28T04:36:34;8.18;;;5.88;;
38132;SDS011;23948;43.252;26.572;2023-02-28T04:39:00;8.60;;;6.78;;
38132;SDS011;23948;43.252;26.572;2023-02-28T04:41:25;8.73;;;6.78;;
38132;SDS011;23948;43.252;26.572;2023-02-28T04:43:51;8.70;;;6.95;;
38132;SDS011;23948;43.252;26.572;2023-02-28T04:46:17;8.75;;;6.80;;
38132;SDS011;23948;43.252;26.572;2023-02-28T04:48:43;10.02;;;7.22;;
38132;SDS011;23948;43.252;26.572;2023-02-28T04:51:10;11.48;;;8.82;;
38132;SDS011;23948;43.252;26.572;2023-02-28T04:53:37;11.05;;;8.85;;
38132;SDS011;23948;43.252;26.572;2023-02-28T04:56:03;12.70;;;8.93;;
38132;SDS011;23948;43.252;26.572;2023-02-28T04:58:29;10.93;;;8.05;;
38132;SDS011;23948;43.252;26.572;2023-02-28T05:00:56;10.23;;;8.05;;
38132;SDS011;23948;43.252;26.572;2023-02-28T05:03:26;9.55;;;7.72;;
38132;SDS011;23948;43.252;26.572;2023-02-28T05:05:51;10.55;;;8.02;;
38132;SDS011;23948;43.252;26.572;2023-02-28T05:08:16;9.02;;;7.32;;
38132;SDS011;23948;43.252;26.572;2023-02-28T05:10:41;10.77;;;8.38;;
38132;SDS011;23948;43.252;26.572;2023-02-28T05:13:08;9.63;;;7.75;;
38132;SDS011;23948;43.252;26.572;2023-02-28T05:15:34;11.57;;;8.23;;
38132;SDS011;23948;43.252;26.572;2023-02-28T05:17:59;9.85;;;7.20;;
38132;SDS011;23948;43.252;26.572;2023-02-28T05:20:25;10.35;;;7.38;;
38132;SDS011;23948;43.252;26.572;2023-02-28T05:22:50;10.43;;;7.82;;
38132;SDS011;23948;43.252;26.572;2023-02-28T05:25:17;11.75;;;9.32;;
38132;SDS011;23948;43.252;26.572;2023-02-28T05:27:43;12.02;;;9.32;;
38132;SDS011;23948;43.252;26.572;2023-02-28T05:30:09;9.35;;;8.18;;
38132;SDS011;23948;43.252;26.572;2023-02-28T05:32:38;11.15;;;9.15;;
38132;SDS011;23948;43.252;26.572;2023-02-28T05:35:03;11.27;;;9.57;;
38132;SDS011;23948;43.252;26.572;2023-02-28T05:37:29;11.35;;;9.45;;
38132;SDS011;23948;43.252;26.572;2023-02-28T05:39:54;10.85;;;9.50;;
38132;SDS011;23948;43.252;26.572;2023-02-28T05:42:19;12.18;;;9.73;;
38132;SDS011;23948;43.252;26.572;2023-02-28T05:44:45;10.77;;;8.95;;
38132;SDS011;23948;43.252;26.572;2023-02-28T05:47:10;9.68;;;8.30;;
38132;SDS011;23948;43.252;26.572;2023-02-28T05:49:37;10.80;;;8.52;;
38132;SDS011;23948;43.252;26.572;2023-02-28T05:52:02;10.45;;;8.40;;
38132;SDS011;23948;43.252;26.572;2023-02-28T05:54:28;9.48;;;7.25;;
38132;SDS011;23948;43.252;26.572;2023-02-28T05:56:53;9.32;;;7.75;;
38132;SDS011;23948;43.252;26.572;2023-02-28T05:59:18;10.60;;;8.90;;
38132;SDS011;23948;43.252;26.572;2023-02-28T06:01:44;12.45;;;11.15;;
38132;SDS011;23948;43.252;26.572;2023-02-28T06:04:13;10.32;;;8.30;;
38132;SDS011;23948;43.252;26.572;2023-02-28T06:06:39;9.68;;;7.97;;
38132;SDS011;23948;43.252;26.572;2023-02-28T06:09:05;11.43;;;8.40;;
38132;SDS011;23948;43.252;26.572;2023-02-28T06:11:30;10.07;;;8.23;;
38132;SDS011;23948;43.252;26.572;2023-02-28T06:13:56;8.48;;;6.93;;
38132;SDS011;23948;43.252;26.572;2023-02-28T06:16:22;9.68;;;7.43;;
38132;SDS011;23948;43.252;26.572;2023-02-28T06:18:47;13.95;;;11.65;;
38132;SDS011;23948;43.252;26.572;2023-02-28T06:21:13;15.00;;;11.75;;
38132;SDS011;23948;43.252;26.572;2023-02-28T06:23:38;10.95;;;9.57;;
38132;SDS011;23948;43.252;26.572;2023-02-28T06:26:04;8.48;;;7.20;;
38132;SDS011;23948;43.252;26.572;2023-02-28T06:28:29;9.82;;;7.97;;
38132;SDS011;23948;43.252;26.572;2023-02-28T06:30:54;10.50;;;8.15;;
38132;SDS011;23948;43.252;26.572;2023-02-28T06:33:20;10.73;;;8.32;;
38132;SDS011;23948;43.252;26.572;2023-02-28T06:35:51;10.00;;;7.57;;
38132;SDS011;23948;43.252;26.572;2023-02-28T06:38:17;11.85;;;8.48;;
38132;SDS011;23948;43.252;26.572;2023-02-28T06:40:43;9.43;;;8.32;;
38132;SDS011;23948;43.252;26.572;2023-02-28T06:43:09;10.07;;;7.88;;
38132;SDS011;23948;43.252;26.572;2023-02-28T06:48:04;18.23;;;10.53;;
38132;SDS011;23948;43.252;26.572;2023-02-28T06:50:30;24.02;;;13.48;;
38132;SDS011;23948;43.252;26.572;2023-02-28T06:52:57;12.70;;;10.60;;
38132;SDS011;23948;43.252;26.572;2023-02-28T06:55:22;14.20;;;10.75;;
38132;SDS011;23948;43.252;26.572;2023-02-28T06:57:48;13.43;;;12.02;;
38132;SDS011;23948;43.252;26.572;2023-02-28T07:00:15;13.45;;;10.63;;
38132;SDS011;23948;43.252;26.572;2023-02-28T07:02:40;12.73;;;11.15;;
38132;SDS011;23948;43.252;26.572;2023-02-28T07:05:06;13.35;;;10.70;;
38132;SDS011;23948;43.252;26.572;2023-02-28T07:07:31;13.85;;;11.43;;
38132;SDS011;23948;43.252;26.572;2023-02-28T07:09:57;11.13;;;9.27;;
38132;SDS011;23948;43.252;26.572;2023-02-28T07:12:22;14.13;;;10.25;;
38132;SDS011;23948;43.252;26.572;2023-02-28T07:14:48;15.90;;;12.85;;
38132;SDS011;23948;43.252;26.572;2023-02-28T07:17:13;18.60;;;13.73;;
38132;SDS011;23948;43.252;26.572;2023-02-28T07:19:40;18.58;;;12.27;;
38132;SDS011;23948;43.252;26.572;2023-02-28T07:22:05;18.05;;;13.13;;
38132;SDS011;23948;43.252;26.572;2023-02-28T07:24:30;23.38;;;17.73;;
38132;SDS011;23948;43.252;26.572;2023-02-28T07:26:56;24.67;;;16.30;;
38132;SDS011;23948;43.252;26.572;2023-02-28T07:29:21;26.83;;;16.60;;
38132;SDS011;23948;43.252;26.572;2023-02-28T07:31:47;25.42;;;15.50;;
38132;SDS011;23948;43.252;26.572;2023-02-28T07:34:12;22.75;;;14.80;;
38132;SDS011;23948;43.252;26.572;2023-02-28T07:36:38;68.82;;;55.25;;
38132;SDS011;23948;43.252;26.572;2023-02-28T07:39:03;21.65;;;14.70;;
38132;SDS011;23948;43.252;26.572;2023-02-28T07:41:29;27.23;;;17.08;;
38132;SDS011;23948;43.252;26.572;2023-02-28T07:43:57;22.52;;;15.27;;
38132;SDS011;23948;43.252;26.572;2023-02-28T07:46:24;18.25;;;13.15;;
38132;SDS011;23948;43.252;26.572;2023-02-28T07:48:50;28.60;;;20.25;;
38132;SDS011;23948;43.252;26.572;2023-02-28T07:51:15;32.60;;;21.33;;
38132;SDS011;23948;43.252;26.572;2023-02-28T07:53:40;51.03;;;32.60;;
38132;SDS011;23948;43.252;26.572;2023-02-28T07:56:06;20.10;;;14.63;;
38132;SDS011;23948;43.252;26.572;2023-02-28T07:58:31;27.65;;;17.58;;
38132;SDS011;23948;43.252;26.572;2023-02-28T08:01:04;21.70;;;15.55;;
38132;SDS011;23948;43.252;26.572;2023-02-28T08:03:29;19.50;;;12.93;;
38132;SDS011;23948;43.252;26.572;2023-02-28T08:05:54;21.73;;;13.02;;
38132;SDS011;23948;43.252;26.572;2023-02-28T08:08:20;23.63;;;14.18;;
38132;SDS011;23948;43.252;26.572;2023-02-28T08:10:45;23.05;;;12.85;;
38132;SDS011;23948;43.252;26.572;2023-02-28T08:13:10;19.67;;;13.02;;
38132;SDS011;23948;43.252;26.572;2023-02-28T08:15:35;22.20;;;14.93;;
38132;SDS011;23948;43.252;26.572;2023-02-28T08:18:01;17.70;;;12.15;;
38132;SDS011;23948;43.252;26.572;2023-02-28T08:20:26;22.55;;;13.90;;
38132;SDS011;23948;43.252;26.572;2023-02-28T08:22:52;25.42;;;13.88;;
38132;SDS011;23948;43.252;26.572;2023-02-28T08:25:17;22.50;;;14.10;;
38132;SDS011;23948;43.252;26.572;2023-02-28T08:27:42;23.77;;;16.17;;
38132;SDS011;23948;43.252;26.572;2023-02-28T08:30:10;34.85;;;22.83;;
38132;SDS011;23948;43.252;26.572;2023-02-28T08:32:35;19.42;;;13.25;;
38132;SDS011;23948;43.252;26.572;2023-02-28T08:35:01;21.52;;;13.77;;
38132;SDS011;23948;43.252;26.572;2023-02-28T08:37:28;16.08;;;11.95;;
38132;SDS011;23948;43.252;26.572;2023-02-28T08:39:53;17.42;;;12.07;;
38132;SDS011;23948;43.252;26.572;2023-02-28T08:42:18;28.15;;;17.95;;
38132;SDS011;23948;43.252;26.572;2023-02-28T08:44:43;19.95;;;13.65;;
38132;SDS011;23948;43.252;26.572;2023-02-28T08:47:09;22.85;;;15.30;;
38132;SDS011;23948;43.252;26.572;2023-02-28T08:49:34;16.20;;;12.13;;
38132;SDS011;23948;43.252;26.572;2023-02-28T08:52:00;17.17;;;11.25;;
38132;SDS011;23948;43.252;26.572;2023-02-28T08:54:26;15.88;;;10.77;;
38132;SDS011;23948;43.252;26.572;2023-02-28T08:56:53;21.27;;;14.93;;
38132;SDS011;23948;43.252;26.572;2023-02-28T08:59:19;15.65;;;11.77;;
38132;SDS011;23948;43.252;26.572;2023-02-28T09:01:44;15.43;;;11.40;;
38132;SDS011;23948;43.252;26.572;2023-02-28T09:04:10;15.00;;;11.20;;
38132;SDS011;23948;43.252;26.572;2023-02-28T09:06:37;13.23;;;10.98;;
38132;SDS011;23948;43.252;26.572;2023-02-28T09:09:02;23.08;;;15.48;;
38132;SDS011;23948;43.252;26.572;2023-02-28T09:11:29;14.65;;;11.63;;
38132;SDS011;23948;43.252;26.572;2023-02-28T09:13:55;25.63;;;15.05;;
38132;SDS011;23948;43.252;26.572;2023-02-28T09:16:20;14.20;;;11.02;;
38132;SDS011;23948;43.252;26.572;2023-02-28T09:18:46;13.82;;;9.88;;
38132;SDS011;23948;43.252;26.572;2023-02-28T09:21:12;18.65;;;13.27;;
38132;SDS011;23948;43.252;26.572;2023-02-28T09:23:42;15.75;;;13.00;;
38132;SDS011;23948;43.252;26.572;2023-02-28T09:26:07;18.00;;;14.40;;
38132;SDS011;23948;43.252;26.572;2023-02-28T09:28:33;31.92;;;26.40;;
38132;SDS011;23948;43.252;26.572;2023-02-28T09:30:58;46.53;;;39.97;;
38132;SDS011;23948;43.252;26.572;2023-02-28T09:33:24;22.67;;;15.73;;
38132;SDS011;23948;43.252;26.572;2023-02-28T09:35:49;22.77;;;13.35;;
38132;SDS011;23948;43.252;26.572;2023-02-28T09:38:15;17.58;;;12.02;;
38132;SDS011;23948;43.252;26.572;2023-02-28T09:40:51;20.05;;;13.52;;
38132;SDS011;23948;43.252;26.572;2023-02-28T09:43:17;29.88;;;18.20;;
38132;SDS011;23948;43.252;26.572;2023-02-28T09:48:46;16.95;;;11.00;;
38132;SDS011;23948;43.252;26.572;2023-02-28T09:51:27;17.63;;;13.15;;
38132;SDS011;23948;43.252;26.572;2023-02-28T09:56:25;16.43;;;11.13;;
38132;SDS011;23948;43.252;26.572;2023-02-28T10:01:32;17.30;;;12.48;;
38132;SDS011;23948;43.252;26.572;2023-02-28T10:04:10;27.50;;;19.63;;
38132;SDS011;23948;43.252;26.572;2023-02-28T10:06:49;32.75;;;27.70;;
38132;SDS011;23948;43.252;26.572;2023-02-28T10:09:22;22.73;;;18.25;;
38132;SDS011;23948;43.252;26.572;2023-02-28T10:11:52;15.80;;;11.02;;
38132;SDS011;23948;43.252;26.572;2023-02-28T10:14:19;15.60;;;10.90;;
38132;SDS011;23948;43.252;26.572;2023-02-28T10:16:56;16.20;;;12.13;;
38132;SDS011;23948;43.252;26.572;2023-02-28T10:19:28;16.75;;;11.10;;
38132;SDS011;23948;43.252;26.572;2023-02-28T10:22:03;14.55;;;10.80;;
38132;SDS011;23948;43.252;26.572;2023-02-28T10:26:56;17.08;;;11.00;;
38132;SDS011;23948;43.252;26.572;2023-02-28T10:29:24;16.25;;;10.93;;
38132;SDS011;23948;43.252;26.572;2023-02-28T10:31:49;14.18;;;10.68;;
38132;SDS011;23948;43.252;26.572;2023-02-28T10:34:16;16.00;;;10.50;;
38132;SDS011;23948;43.252;26.572;2023-02-28T10:36:41;25.88;;;16.52;;
38132;SDS011;23948;43.252;26.572;2023-02-28T10:41:52;20.50;;;13.55;;
38132;SDS011;23948;43.252;26.572;2023-02-28T10:44:19;15.73;;;12.40;;
38132;SDS011;23948;43.252;26.572;2023-02-28T10:46:44;15.55;;;11.82;;
38132;SDS011;23948;43.252;26.572;2023-02-28T10:49:20;15.98;;;11.45;;
38132;SDS011;23948;43.252;26.572;2023-02-28T10:51:46;18.27;;;11.20;;
38132;SDS011;23948;43.252;26.572;2023-02-28T10:54:18;19.25;;;13.77;;
38132;SDS011;23948;43.252;26.572;2023-02-28T10:56:43;18.05;;;13.10;;
38132;SDS011;23948;43.252;26.572;2023-02-28T11:01:40;17.48;;;12.20;;
38132;SDS011;23948;43.252;26.572;2023-02-28T11:04:20;19.30;;;12.70;;
38132;SDS011;23948;43.252;26.572;2023-02-28T11:07:17;27.52;;;15.32;;
38132;SDS011;23948;43.252;26.572;2023-02-28T11:09:45;29.52;;;19.13;;
38132;SDS011;23948;43.252;26.572;2023-02-28T11:12:23;20.65;;;13.68;;
38132;SDS011;23948;43.252;26.572;2023-02-28T11:14:54;19.52;;;12.65;;
38132;SDS011;23948;43.252;26.572;2023-02-28T11:17:24;18.80;;;13.02;;
38132;SDS011;23948;43.252;26.572;2023-02-28T11:19:51;23.83;;;17.03;;
38132;SDS011;23948;43.252;26.572;2023-02-28T11:22:22;21.83;;;16.23;;
38132;SDS011;23948;43.252;26.572;2023-02-28T11:24:49;18.88;;;14.02;;
38132;SDS011;23948;43.252;26.572;2023-02-28T11:32:22;22.50;;;14.77;;
38132;SDS011;23948;43.252;26.572;2023-02-28T11:34:59;23.40;;;17.45;;
38132;SDS011;23948;43.252;26.572;2023-02-28T11:37:25;21.98;;;16.42;;
38132;SDS011;23948;43.252;26.572;2023-02-28T11:39:52;26.70;;;16.77;;
38132;SDS011;23948;43.252;26.572;2023-02-28T11:42:28;27.52;;;19.30;;
38132;SDS011;23948;43.252;26.572;2023-02-28T11:45:18;24.80;;;16.08;;
38132;SDS011;23948;43.252;26.572;2023-02-28T11:48:08;26.08;;;16.75;;
38132;SDS011;23948;43.252;26.572;2023-02-28T11:50:40;25.27;;;18.23;;
38132;SDS011;23948;43.252;26.572;2023-02-28T11:55:54;30.45;;;19.50;;
38132;SDS011;23948;43.252;26.572;2023-02-28T12:08:52;28.83;;;19.45;;
38132;SDS011;23948;43.252;26.572;2023-02-28T12:11:24;30.00;;;19.00;;
38132;SDS011;23948;43.252;26.572;2023-02-28T12:14:02;28.30;;;20.00;;
38132;SDS011;23948;43.252;26.572;2023-02-28T12:16:34;32.42;;;20.13;;
38132;SDS011;23948;43.252;26.572;2023-02-28T12:26:38;28.85;;;22.05;;
38132;SDS011;23948;43.252;26.572;2023-02-28T12:29:09;28.70;;;19.20;;
38132;SDS011;23948;43.252;26.572;2023-02-28T12:31:36;34.90;;;22.38;;
38132;SDS011;23948;43.252;26.572;2023-02-28T12:34:04;32.35;;;21.65;;
38132;SDS011;23948;43.252;26.572;2023-02-28T12:36:31;31.52;;;19.63;;
38132;SDS011;23948;43.252;26.572;2023-02-28T12:39:10;39.50;;;25.38;;
38132;SDS011;23948;43.252;26.572;2023-02-28T12:46:50;29.45;;;20.60;;
38132;SDS011;23948;43.252;26.572;2023-02-28T12:49:17;29.02;;;19.80;;
38132;SDS011;23948;43.252;26.572;2023-02-28T12:51:44;30.35;;;20.40;;
38132;SDS011;23948;43.252;26.572;2023-02-28T12:57:00;27.88;;;18.55;;
38132;SDS011;23948;43.252;26.572;2023-02-28T12:59:34;32.63;;;21.27;;
38132;SDS011;23948;43.252;26.572;2023-02-28T13:09:53;37.95;;;24.52;;
38132;SDS011;23948;43.252;26.572;2023-02-28T13:12:19;36.00;;;24.23;;
38132;SDS011;23948;43.252;26.572;2023-02-28T13:14:45;34.50;;;22.05;;
38132;SDS011;23948;43.252;26.572;2023-02-28T13:17:14;39.17;;;24.25;;
38132;SDS011;23948;43.252;26.572;2023-02-28T13:19:45;38.35;;;23.20;;
38132;SDS011;23948;43.252;26.572;2023-02-28T13:24:51;65.25;;;38.53;;
38132;SDS011;23948;43.252;26.572;2023-02-28T13:29:49;52.35;;;34.60;;
38132;SDS011;23948;43.252;26.572;2023-02-28T13:47:44;33.72;;;21.48;;
38132;SDS011;23948;43.252;26.572;2023-02-28T13:52:49;34.17;;;23.92;;
38132;SDS011;23948;43.252;26.572;2023-02-28T14:05:35;32.80;;;21.30;;
38132;SDS011;23948;43.252;26.572;2023-02-28T14:08:20;34.83;;;22.48;;
38132;SDS011;23948;43.252;26.572;2023-02-28T14:10:48;31.27;;;21.33;;
38132;SDS011;23948;43.252;26.572;2023-02-28T14:15:58;32.38;;;21.77;;
38132;SDS011;23948;43.252;26.572;2023-02-28T14:21:11;32.35;;;22.15;;
38132;SDS011;23948;43.252;26.572;2023-02-28T14:31:34;30.20;;;19.88;;
38132;SDS011;23948;43.252;26.572;2023-02-28T14:34:05;49.35;;;31.30;;
38132;SDS011;23948;43.252;26.572;2023-02-28T14:36:39;55.55;;;35.30;;
38132;SDS011;23948;43.252;26.572;2023-02-28T14:39:06;42.10;;;26.15;;
38132;SDS011;23948;43.252;26.572;2023-02-28T14:41:36;32.45;;;20.83;;
38132;SDS011;23948;43.252;26.572;2023-02-28T14:44:12;32.83;;;19.33;;
38132;SDS011;23948;43.252;26.572;2023-02-28T14:46:38;32.55;;;23.42;;
38132;SDS011;23948;43.252;26.572;2023-02-28T14:49:04;33.33;;;22.92;;
38132;SDS011;23948;43.252;26.572;2023-02-28T14:51:31;31.23;;;23.75;;
38132;SDS011;23948;43.252;26.572;2023-02-28T14:53:59;32.25;;;19.13;;
38132;SDS011;23948;43.252;26.572;2023-02-28T14:56:27;31.75;;;21.33;;
38132;SDS011;23948;43.252;26.572;2023-02-28T14:58:55;28.30;;;19.63;;
38132;SDS011;23948;43.252;26.572;2023-02-28T15:01:22;36.95;;;22.45;;
38132;SDS011;23948;43.252;26.572;2023-02-28T15:03:48;34.42;;;22.20;;
38132;SDS011;23948;43.252;26.572;2023-02-28T15:06:17;39.65;;;25.08;;
38132;SDS011;23948;43.252;26.572;2023-02-28T15:08:43;32.88;;;21.63;;
38132;SDS011;23948;43.252;26.572;2023-02-28T15:11:11;32.78;;;20.27;;
38132;SDS011;23948;43.252;26.572;2023-02-28T15:13:42;33.45;;;21.55;;
38132;SDS011;23948;43.252;26.572;2023-02-28T15:16:13;31.17;;;19.17;;
38132;SDS011;23948;43.252;26.572;2023-02-28T15:21:11;35.33;;;24.05;;
38132;SDS011;23948;43.252;26.572;2023-02-28T15:23:37;38.90;;;21.40;;
38132;SDS011;23948;43.252;26.572;2023-02-28T15:26:03;33.67;;;22.60;;
38132;SDS011;23948;43.252;26.572;2023-02-28T15:28:29;37.58;;;21.50;;
38132;SDS011;23948;43.252;26.572;2023-02-28T15:31:02;38.00;;;23.33;;
38132;SDS011;23948;43.252;26.572;2023-02-28T15:33:29;30.95;;;18.27;;
38132;SDS011;23948;43.252;26.572;2023-02-28T15:36:04;38.15;;;21.67;;
38132;SDS011;23948;43.252;26.572;2023-02-28T15:38:33;30.20;;;19.45;;
38132;SDS011;23948;43.252;26.572;2023-02-28T15:40:58;31.17;;;20.27;;
38132;SDS011;23948;43.252;26.572;2023-02-28T15:45:55;29.90;;;19.60;;
38132;SDS011;23948;43.252;26.572;2023-02-28T15:50:56;34.72;;;23.05;;
38132;SDS011;23948;43.252;26.572;2023-02-28T15:53:26;41.25;;;28.13;;
38132;SDS011;23948;43.252;26.572;2023-02-28T15:56:21;40.22;;;26.20;;
38132;SDS011;23948;43.252;26.572;2023-02-28T15:58:47;42.28;;;29.67;;
38132;SDS011;23948;43.252;26.572;2023-02-28T16:01:32;48.45;;;28.00;;
38132;SDS011;23948;43.252;26.572;2023-02-28T16:04:02;44.05;;;29.90;;
38132;SDS011;23948;43.252;26.572;2023-02-28T16:08:54;54.28;;;33.22;;
38132;SDS011;23948;43.252;26.572;2023-02-28T16:11:22;54.38;;;35.50;;
38132;SDS011;23948;43.252;26.572;2023-02-28T16:13:48;59.15;;;37.95;;
38132;SDS011;23948;43.252;26.572;2023-02-28T16:16:17;42.40;;;28.20;;
38132;SDS011;23948;43.252;26.572;2023-02-28T16:18:44;45.78;;;25.55;;
38132;SDS011;23948;43.252;26.572;2023-02-28T16:21:09;34.90;;;25.35;;
38132;SDS011;23948;43.252;26.572;2023-02-28T16:23:34;40.67;;;24.60;;
38132;SDS011;23948;43.252;26.572;2023-02-28T16:26:00;50.50;;;32.75;;
38132;SDS011;23948;43.252;26.572;2023-02-28T16:28:29;30.13;;;21.52;;
38132;SDS011;23948;43.252;26.572;2023-02-28T16:30:56;36.40;;;24.95;;
38132;SDS011;23948;43.252;26.572;2023-02-28T16:33:21;31.23;;;20.33;;
38132;SDS011;23948;43.252;26.572;2023-02-28T16:35:47;35.83;;;23.73;;
38132;SDS011;23948;43.252;26.572;2023-02-28T16:38:12;42.03;;;28.95;;
38132;SDS011;23948;43.252;26.572;2023-02-28T16:40:37;44.13;;;31.75;;
38132;SDS011;23948;43.252;26.572;2023-02-28T16:43:16;37.80;;;27.27;;
38132;SDS011;23948;43.252;26.572;2023-02-28T16:45:42;45.83;;;32.42;;
38132;SDS011;23948;43.252;26.572;2023-02-28T16:48:10;65.78;;;39.03;;
38132;SDS011;23948;43.252;26.572;2023-02-28T16:50:36;57.83;;;37.47;;